createdAt,value
2023-05-12T00:01:14.045Z,16.07
2023-05-12T00:06:13.857Z,16.15
2023-05-12T00:11:14.859Z,16.05
2023-05-12T00:16:13.862Z,16.24
2023-05-12T00:21:13.684Z,16.17
2023-05-12T00:26:13.654Z,16.27
2023-05-12T00:31:13.690Z,16.33
2023-05-12T00:36:13.539Z,16.38
2023-05-12T00:41:13.465Z,16.38
2023-05-12T00:46:13.525Z,16.43
2023-05-12T00:51:13.509Z,16.46
2023-05-12T00:56:14.327Z,16.34
2023-05-12T01:01:13.386Z,16.38
2023-05-12T01:06:13.316Z,16.43
2023-05-12T01:11:13.179Z,16.41
2023-05-12T01:16:13.232Z,16.31
2023-05-12T01:21:13.103Z,16.24
2023-05-12T01:26:13.106Z,16.34
2023-05-12T01:31:13.093Z,16.27
2023-05-12T01:36:12.975Z,16.11
2023-05-12T01:41:12.872Z,16.14
2023-05-12T01:46:12.883Z,16.27
2023-05-12T01:51:17.204Z,16.24
2023-05-12T01:56:12.693Z,16.27
2023-05-12T02:01:12.700Z,16.24
2023-05-12T02:06:12.555Z,16.24
2023-05-12T02:11:12.531Z,15.96
2023-05-12T02:16:12.591Z,15.75
2023-05-12T02:21:12.458Z,15.80
2023-05-12T02:26:12.398Z,16.00
2023-05-12T02:31:12.345Z,16.00
2023-05-12T02:36:12.306Z,15.86
2023-05-12T02:41:12.179Z,16.01
2023-05-12T02:46:12.128Z,16.04
2023-05-12T02:51:12.037Z,15.87
2023-05-12T02:56:12.031Z,15.89
2023-05-12T03:01:13.107Z,15.84
2023-05-12T03:06:11.958Z,15.84
2023-05-12T03:11:11.909Z,15.71
2023-05-12T03:16:11.821Z,15.71
2023-05-12T03:21:11.862Z,15.62
2023-05-12T03:26:11.667Z,15.54
2023-05-12T03:31:11.649Z,15.46
2023-05-12T03:36:11.543Z,15.43
2023-05-12T03:41:11.545Z,15.39
2023-05-12T03:46:11.603Z,15.36
2023-05-12T03:51:13.438Z,15.34
2023-05-12T03:56:11.339Z,15.28
2023-05-12T04:01:11.299Z,15.28
2023-05-12T04:06:11.253Z,15.28
2023-05-12T04:11:11.167Z,15.13
2023-05-12T04:17:21.467Z,15.20
2023-05-12T04:22:22.892Z,15.21
2023-05-12T04:27:21.476Z,15.21
2023-05-12T04:32:21.375Z,15.19
2023-05-12T04:37:21.291Z,15.17
2023-05-12T04:42:21.206Z,15.32
2023-05-12T04:47:21.174Z,15.38
2023-05-12T04:52:21.236Z,15.29
2023-05-12T04:57:23.989Z,15.43
2023-05-12T05:02:23.609Z,15.44
2023-05-12T05:07:21.108Z,15.46
2023-05-12T05:12:20.952Z,15.38
2023-05-12T05:17:20.893Z,15.53
2023-05-12T05:22:20.862Z,15.59
2023-05-12T05:27:20.767Z,15.82
2023-05-12T05:32:21.048Z,15.80
2023-05-12T05:37:20.654Z,15.83
2023-05-12T05:42:20.560Z,15.87
2023-05-12T05:47:20.666Z,15.71
2023-05-12T05:52:20.620Z,15.78
2023-05-12T05:57:20.382Z,15.69
2023-05-12T06:02:20.465Z,15.65
2023-05-12T06:07:22.105Z,16.00
2023-05-12T06:12:20.230Z,16.24
2023-05-12T06:17:20.245Z,16.41
2023-05-12T06:22:20.146Z,16.35
2023-05-12T06:27:20.410Z,16.53
2023-05-12T06:32:20.272Z,16.52
2023-05-12T06:37:20.129Z,16.68
2023-05-12T06:42:19.884Z,16.73
2023-05-12T06:47:21.377Z,16.78
2023-05-12T06:52:20.836Z,16.96
2023-05-12T06:57:19.867Z,16.88
2023-05-12T07:02:19.661Z,16.97
2023-05-12T07:07:19.691Z,16.86
2023-05-12T07:12:19.621Z,17.22
2023-05-12T07:17:19.583Z,17.23
2023-05-12T07:22:19.532Z,17.01
2023-05-12T07:27:19.393Z,17.15
2023-05-12T07:32:19.352Z,17.04
2023-05-12T07:37:19.317Z,16.88
2023-05-12T07:42:19.279Z,16.67
2023-05-12T07:47:19.190Z,16.93
2023-05-12T07:52:19.177Z,17.18
2023-05-12T07:57:19.121Z,17.14
2023-05-12T08:02:19.054Z,17.30
2023-05-12T08:07:18.981Z,17.51
2023-05-12T08:12:18.949Z,17.74
2023-05-12T08:17:18.973Z,17.63
2023-05-12T08:22:19.016Z,17.75
2023-05-12T08:27:18.780Z,17.54
2023-05-12T08:32:18.796Z,17.58
2023-05-12T08:37:18.706Z,18.07
2023-05-12T08:42:18.593Z,18.18
2023-05-12T08:47:18.565Z,18.48
2023-05-12T08:52:18.436Z,18.54
2023-05-12T08:57:18.464Z,19.10
2023-05-12T09:02:18.487Z,19.33
2023-05-12T09:07:19.498Z,19.66
2023-05-12T09:12:18.239Z,20.03
2023-05-12T09:17:18.186Z,19.96
2023-05-12T09:22:20.122Z,19.81
2023-05-12T09:27:18.134Z,19.54
2023-05-12T09:32:18.054Z,19.71
2023-05-12T09:37:17.965Z,19.40
2023-05-12T09:42:17.935Z,19.43
2023-05-12T09:47:17.877Z,19.65
2023-05-12T09:52:17.829Z,20.18
2023-05-12T09:57:17.954Z,20.17
2023-05-12T10:02:17.737Z,19.95
2023-05-12T10:07:17.678Z,20.11
2023-05-12T10:12:17.593Z,20.41
2023-05-12T10:17:26.429Z,21.01
2023-05-12T10:22:17.464Z,20.59
2023-05-12T10:27:17.428Z,20.73
2023-05-12T10:32:17.413Z,20.54
2023-05-12T10:37:17.347Z,20.84
2023-05-12T10:42:17.316Z,20.72
2023-05-12T10:47:17.384Z,20.41
2023-05-12T10:52:17.292Z,20.73
2023-05-12T10:57:18.771Z,21.25
2023-05-12T11:02:17.563Z,21.19
2023-05-12T11:07:17.206Z,21.50
2023-05-12T11:12:16.961Z,21.52
2023-05-12T11:17:16.909Z,21.83
2023-05-12T11:22:16.864Z,22.03
2023-05-12T11:27:17.828Z,22.51
2023-05-12T11:32:17.789Z,22.35
2023-05-12T11:37:16.720Z,23.61
2023-05-12T11:42:19.835Z,23.58
2023-05-12T11:47:16.856Z,23.10
2023-05-12T11:52:16.581Z,23.87
2023-05-12T11:57:16.494Z,24.37
2023-05-12T12:02:16.535Z,24.80
2023-05-12T12:07:16.397Z,24.62
2023-05-12T12:12:16.392Z,24.42
2023-05-12T12:17:16.340Z,23.90
2023-05-12T12:22:16.290Z,23.42
2023-05-12T12:27:16.209Z,23.01
2023-05-12T12:32:16.172Z,23.01
2023-05-12T12:37:16.222Z,23.39
2023-05-12T12:42:16.098Z,23.68
2023-05-12T12:47:25.009Z,24.68
2023-05-12T12:52:15.956Z,23.50
2023-05-12T12:57:15.931Z,23.07
2023-05-12T13:02:15.989Z,22.91
2023-05-12T13:07:15.847Z,22.57
2023-05-12T13:12:15.740Z,22.55
2023-05-12T13:17:15.714Z,22.72
2023-05-12T13:22:15.649Z,22.95
2023-05-12T13:27:15.620Z,23.57
2023-05-12T13:32:15.530Z,23.98
2023-05-12T13:37:15.477Z,24.28
2023-05-12T13:42:15.491Z,24.20
2023-05-12T13:47:15.397Z,24.21
2023-05-12T13:52:15.336Z,23.76
2023-05-12T13:57:15.281Z,23.05
2023-05-12T14:02:15.237Z,22.52
2023-05-12T14:07:15.201Z,22.09
2023-05-12T14:12:15.165Z,22.10
2023-05-12T14:17:15.104Z,22.27
2023-05-12T14:22:25.498Z,22.36
2023-05-12T14:27:16.030Z,22.28
2023-05-12T14:32:14.889Z,22.43
2023-05-12T14:37:14.833Z,22.95
2023-05-12T14:42:14.790Z,24.12
2023-05-12T14:47:14.709Z,24.37
2023-05-12T14:52:14.675Z,24.12
2023-05-12T14:57:14.712Z,22.75
2023-05-12T15:02:14.862Z,21.86
2023-05-12T15:07:15.609Z,21.98
2023-05-12T15:12:14.525Z,21.17
2023-05-12T15:17:14.533Z,19.48
2023-05-12T15:22:14.389Z,18.78
2023-05-12T15:27:14.313Z,18.11
2023-05-12T15:32:14.433Z,18.05
2023-05-12T15:37:14.204Z,18.21
2023-05-12T15:42:16.696Z,18.70
2023-05-12T15:47:15.179Z,19.08
2023-05-12T15:52:14.074Z,19.41
2023-05-12T15:57:13.997Z,19.71
2023-05-12T16:02:14.141Z,20.14
2023-05-12T16:07:13.960Z,20.35
2023-05-12T16:12:13.842Z,20.21
2023-05-12T16:17:13.767Z,20.38
2023-05-12T16:22:22.629Z,20.62
2023-05-12T16:27:13.736Z,20.41
2023-05-12T16:32:13.683Z,20.33
2023-05-12T16:37:13.594Z,20.66
2023-05-12T16:42:13.552Z,20.70
2023-05-12T16:47:13.484Z,20.73
2023-05-12T16:52:13.497Z,20.57
2023-05-12T16:57:13.330Z,20.41
2023-05-12T17:02:13.419Z,20.16
2023-05-12T17:07:13.225Z,20.23
2023-05-12T17:12:13.162Z,20.21
2023-05-12T17:17:13.221Z,20.02
2023-05-12T17:22:13.101Z,20.01
2023-05-12T17:27:13.027Z,20.28
2023-05-12T17:32:20.865Z,20.41
2023-05-12T17:37:12.881Z,20.33
2023-05-12T17:42:12.928Z,20.24
2023-05-12T17:47:13.972Z,20.20
2023-05-12T17:52:13.820Z,20.17
2023-05-12T17:57:12.740Z,19.96
2023-05-12T18:02:12.746Z,19.86
2023-05-12T18:07:12.638Z,19.76
2023-05-12T18:12:12.619Z,19.66
2023-05-12T18:17:12.620Z,19.55
2023-05-12T18:22:12.587Z,19.41
2023-05-12T18:27:12.437Z,19.25
2023-05-12T18:32:12.356Z,19.07
2023-05-12T18:37:12.281Z,18.84
2023-05-12T18:42:12.220Z,18.48
2023-05-12T18:47:12.174Z,18.51
2023-05-12T18:52:12.214Z,18.30
2023-05-12T18:57:12.200Z,17.99
2023-05-12T19:02:12.117Z,17.86
2023-05-12T19:07:11.997Z,17.66
2023-05-12T19:12:12.141Z,17.46
2023-05-12T19:17:12.952Z,17.36
2023-05-12T19:22:11.852Z,17.26
2023-05-12T19:27:11.770Z,17.16
2023-05-12T19:32:11.787Z,17.04
2023-05-12T19:37:11.686Z,16.89
2023-05-12T19:42:11.658Z,16.75
2023-05-12T19:47:11.511Z,16.58
2023-05-12T19:52:11.514Z,16.43
2023-05-12T19:57:11.434Z,16.30
2023-05-12T20:02:11.536Z,16.20
2023-05-12T20:07:11.346Z,16.02
2023-05-12T20:12:11.327Z,15.89
2023-05-12T20:17:11.269Z,15.76
2023-05-12T20:22:11.169Z,15.64
2023-05-12T20:27:11.212Z,15.54
2023-05-12T20:32:13.657Z,15.50
2023-05-12T20:37:11.123Z,15.38
2023-05-12T20:42:10.964Z,15.25
2023-05-12T20:47:10.892Z,15.16
2023-05-12T20:52:10.838Z,15.03
2023-05-12T20:57:10.804Z,14.96
2023-05-12T21:02:10.781Z,14.81
2023-05-12T21:07:10.680Z,14.64
2023-05-12T21:12:11.659Z,14.58
2023-05-12T21:17:10.704Z,14.47
2023-05-12T21:22:10.640Z,14.43
2023-05-12T21:27:10.528Z,14.37
2023-05-12T21:32:10.578Z,14.32
2023-05-12T21:37:10.368Z,14.35
2023-05-12T21:42:10.368Z,14.28
2023-05-12T21:47:10.248Z,14.21
2023-05-12T21:52:10.183Z,14.15
2023-05-12T21:57:10.094Z,14.10
2023-05-12T22:02:10.158Z,14.06
2023-05-12T22:07:10.073Z,13.97
2023-05-12T22:12:09.989Z,13.91
2023-05-12T22:17:09.910Z,13.92
2023-05-12T22:22:18.726Z,14.06
2023-05-12T22:27:09.870Z,13.79
2023-05-12T22:32:09.819Z,13.73
2023-05-12T22:37:09.643Z,13.67
2023-05-12T22:42:09.622Z,13.57
2023-05-12T22:47:09.590Z,13.46
2023-05-12T22:52:09.505Z,13.42
2023-05-12T22:57:09.486Z,13.41
2023-05-12T23:02:09.388Z,13.29
2023-05-12T23:07:09.424Z,13.28
2023-05-12T23:12:09.337Z,13.19
2023-05-12T23:17:09.283Z,13.20
2023-05-12T23:22:09.258Z,13.20
2023-05-12T23:27:09.097Z,13.10
2023-05-12T23:32:09.099Z,13.05
2023-05-12T23:37:09.008Z,12.96
2023-05-12T23:42:08.945Z,12.90
2023-05-12T23:47:08.912Z,12.83
2023-05-12T23:52:08.913Z,12.75
2023-05-12T23:57:08.901Z,12.71
